createdAt,value
2023-01-17T00:01:18.778Z,72.33
2023-01-17T00:04:07.333Z,72.68
2023-01-17T00:06:56.101Z,72.81
2023-01-17T00:09:44.891Z,72.80
2023-01-17T00:12:15.427Z,72.32
2023-01-17T00:14:46.152Z,72.61
2023-01-17T00:17:16.802Z,73.58
2023-01-17T00:20:05.620Z,73.50
2023-01-17T00:22:54.763Z,73.98
2023-01-17T00:25:51.907Z,73.73
2023-01-17T00:28:22.280Z,73.71
2023-01-17T00:30:52.621Z,72.93
2023-01-17T00:33:24.304Z,72.45
2023-01-17T00:35:55.405Z,72.12
2023-01-17T00:38:27.089Z,72.24
2023-01-17T00:41:03.078Z,71.78
2023-01-17T00:43:51.795Z,71.89
2023-01-17T00:46:40.892Z,71.77
2023-01-17T00:49:29.458Z,71.94
2023-01-17T00:52:18.121Z,71.57
2023-01-17T00:55:07.086Z,71.38
2023-01-17T00:57:55.664Z,71.85
2023-01-17T01:00:44.234Z,71.25
2023-01-17T01:03:33.823Z,70.69
2023-01-17T01:06:25.749Z,71.17
2023-01-17T01:09:14.453Z,70.78
2023-01-17T01:12:03.299Z,70.50
2023-01-17T01:14:52.433Z,70.35
2023-01-17T01:17:42.367Z,70.60
2023-01-17T01:20:31.341Z,70.17
2023-01-17T01:23:23.593Z,69.80
2023-01-17T01:26:11.911Z,69.52
2023-01-17T01:29:00.727Z,69.67
2023-01-17T01:31:50.091Z,69.83
2023-01-17T01:34:20.947Z,69.58
2023-01-17T01:36:51.505Z,69.81
2023-01-17T01:39:22.250Z,69.81
2023-01-17T01:41:52.863Z,69.66
2023-01-17T01:44:41.751Z,69.30
2023-01-17T01:47:17.940Z,69.43
2023-01-17T01:49:49.978Z,69.09
2023-01-17T01:52:23.172Z,68.92
2023-01-17T01:54:53.929Z,68.77
2023-01-17T01:57:26.169Z,68.66
2023-01-17T02:00:00.122Z,68.97
2023-01-17T02:02:31.992Z,68.89
2023-01-17T02:05:04.601Z,68.39
2023-01-17T02:07:46.726Z,68.76
2023-01-17T02:10:17.642Z,68.55
2023-01-17T02:12:48.699Z,68.17
2023-01-17T02:15:19.559Z,68.13
2023-01-17T02:17:58.878Z,68.52
2023-01-17T02:20:47.718Z,68.59
2023-01-17T02:23:27.191Z,68.33
2023-01-17T02:26:06.694Z,68.90
2023-01-17T02:28:43.317Z,68.49
2023-01-17T02:31:23.262Z,68.36
2023-01-17T02:34:03.735Z,68.68
2023-01-17T02:36:38.243Z,69.08
2023-01-17T02:39:11.169Z,69.05
2023-01-17T02:41:46.214Z,69.27
2023-01-17T02:44:21.245Z,68.88
2023-01-17T02:46:53.237Z,69.10
2023-01-17T02:49:27.134Z,69.25
2023-01-17T02:52:07.548Z,69.04
2023-01-17T02:54:38.418Z,68.82
2023-01-17T02:57:09.691Z,68.96
2023-01-17T02:59:52.686Z,69.83
2023-01-17T03:02:30.027Z,69.54
2023-01-17T03:05:27.120Z,69.81
2023-01-17T03:07:58.032Z,69.73
2023-01-17T03:10:28.514Z,69.57
2023-01-17T03:13:00.386Z,69.96
2023-01-17T03:15:31.022Z,69.56
2023-01-17T03:18:04.137Z,69.64
2023-01-17T03:20:34.724Z,69.52
2023-01-17T03:23:05.809Z,69.95
2023-01-17T03:25:36.375Z,69.91
2023-01-17T03:28:07.310Z,69.61
2023-01-17T03:30:38.026Z,69.99
2023-01-17T03:33:08.704Z,69.66
2023-01-17T03:35:39.583Z,69.57
2023-01-17T03:38:10.224Z,69.19
2023-01-17T03:40:40.877Z,69.38
2023-01-17T03:43:11.877Z,69.67
2023-01-17T03:45:42.411Z,69.97
2023-01-17T03:48:13.343Z,69.80
2023-01-17T03:50:43.980Z,69.65
2023-01-17T03:53:14.744Z,69.82
2023-01-17T03:55:47.373Z,70.51
2023-01-17T03:58:18.276Z,70.02
2023-01-17T04:00:48.912Z,70.25
2023-01-17T04:03:19.634Z,70.93
2023-01-17T04:05:50.152Z,70.82
2023-01-17T04:08:21.015Z,71.37
2023-01-17T04:10:51.825Z,71.29
2023-01-17T04:13:22.439Z,71.38
2023-01-17T04:15:53.210Z,71.50
2023-01-17T04:18:25.605Z,70.96
2023-01-17T04:20:56.094Z,70.92
2023-01-17T04:23:26.684Z,69.85
2023-01-17T04:25:57.225Z,69.70
2023-01-17T04:28:28.030Z,69.28
2023-01-17T04:31:01.717Z,68.37
2023-01-17T04:33:32.435Z,68.39
2023-01-17T04:36:03.012Z,67.62
2023-01-17T04:38:33.681Z,67.45
2023-01-17T04:41:04.559Z,67.41
2023-01-17T04:43:36.605Z,67.44
2023-01-17T04:46:11.399Z,67.25
2023-01-17T04:48:42.052Z,66.64
2023-01-17T04:51:12.727Z,66.72
2023-01-17T04:53:43.880Z,66.47
2023-01-17T04:56:14.472Z,66.06
2023-01-17T04:58:45.101Z,66.05
2023-01-17T05:01:16.357Z,65.14
2023-01-17T05:03:47.085Z,65.73
2023-01-17T05:06:17.849Z,62.72
2023-01-17T05:08:48.704Z,61.02
2023-01-17T05:11:19.714Z,60.49
2023-01-17T05:13:51.005Z,59.51
2023-01-17T05:16:21.942Z,59.30
2023-01-17T05:18:54.565Z,58.54
2023-01-17T05:21:25.644Z,58.14
2023-01-17T05:23:56.174Z,57.49
2023-01-17T05:26:26.908Z,56.63
2023-01-17T05:28:57.412Z,55.75
2023-01-17T05:31:28.109Z,54.81
2023-01-17T05:33:58.860Z,53.33
2023-01-17T05:36:29.747Z,52.49
2023-01-17T05:39:00.898Z,51.99
2023-01-17T05:41:31.498Z,51.60
2023-01-17T05:44:01.993Z,50.96
2023-01-17T05:46:32.934Z,49.82
2023-01-17T05:49:03.500Z,49.95
2023-01-17T05:51:34.336Z,49.44
2023-01-17T05:54:05.613Z,48.64
2023-01-17T05:56:36.312Z,47.79
2023-01-17T05:59:06.836Z,47.54
2023-01-17T06:01:37.502Z,46.70
2023-01-17T06:04:08.094Z,46.63
2023-01-17T06:06:38.726Z,46.53
2023-01-17T06:09:09.492Z,45.69
2023-01-17T06:11:40.702Z,45.24
2023-01-17T06:14:11.293Z,45.37
2023-01-17T06:16:41.917Z,44.80
2023-01-17T06:19:12.460Z,44.37
2023-01-17T06:21:43.093Z,44.27
2023-01-17T06:24:14.365Z,44.63
2023-01-17T06:26:47.971Z,44.89
2023-01-17T06:29:18.444Z,44.92
2023-01-17T06:31:49.318Z,44.61
2023-01-17T06:34:20.151Z,44.26
2023-01-17T06:36:50.777Z,43.81
2023-01-17T06:39:21.427Z,43.99
2023-01-17T06:41:52.131Z,43.62
2023-01-17T06:44:22.629Z,43.23
2023-01-17T06:46:53.836Z,43.34
2023-01-17T06:49:24.938Z,42.97
2023-01-17T06:51:55.587Z,43.12
2023-01-17T06:54:26.312Z,43.18
2023-01-17T06:56:57.233Z,42.75
2023-01-17T06:59:28.997Z,42.49
2023-01-17T07:01:59.777Z,41.88
2023-01-17T07:04:30.430Z,41.82
2023-01-17T07:07:01.186Z,41.26
2023-01-17T07:09:33.151Z,41.33
2023-01-17T07:12:03.989Z,41.21
2023-01-17T07:14:34.508Z,41.41
2023-01-17T07:17:06.068Z,41.19
2023-01-17T07:19:37.350Z,40.90
2023-01-17T07:22:12.260Z,41.10
2023-01-17T07:24:42.976Z,41.71
2023-01-17T07:27:13.499Z,41.33
2023-01-17T07:29:44.081Z,41.86
2023-01-17T07:32:14.658Z,41.56
2023-01-17T07:34:45.317Z,42.09
2023-01-17T07:37:15.953Z,41.43
2023-01-17T07:39:46.508Z,40.78
2023-01-17T07:42:17.154Z,40.67
2023-01-17T07:44:48.439Z,42.05
2023-01-17T07:47:18.942Z,42.47
2023-01-17T07:49:49.684Z,42.57
2023-01-17T07:52:20.671Z,43.14
2023-01-17T07:54:51.568Z,44.29
2023-01-17T07:57:22.577Z,44.52
2023-01-17T07:59:53.713Z,44.79
2023-01-17T08:02:24.917Z,45.00
2023-01-17T08:04:55.502Z,44.52
2023-01-17T08:07:25.992Z,44.86
2023-01-17T08:09:56.906Z,44.22
2023-01-17T08:12:27.526Z,44.36
2023-01-17T08:14:58.178Z,44.08
2023-01-17T08:17:29.950Z,43.61
2023-01-17T08:20:01.823Z,44.10
2023-01-17T08:22:32.693Z,43.88
2023-01-17T08:25:03.456Z,43.32
2023-01-17T08:27:35.566Z,43.64
2023-01-17T08:30:07.761Z,43.09
2023-01-17T08:32:42.304Z,43.54
2023-01-17T08:35:13.104Z,43.49
2023-01-17T08:37:43.681Z,43.01
2023-01-17T08:40:14.644Z,42.83
2023-01-17T08:42:45.658Z,42.95
2023-01-17T08:45:16.649Z,42.93
2023-01-17T08:47:47.178Z,42.74
2023-01-17T08:50:22.168Z,43.19
2023-01-17T08:52:54.776Z,42.59
2023-01-17T08:55:25.385Z,42.43
2023-01-17T08:57:55.861Z,42.71
2023-01-17T09:00:26.958Z,42.13
2023-01-17T09:02:58.011Z,42.54
2023-01-17T09:05:28.726Z,42.58
2023-01-17T09:07:59.316Z,41.98
2023-01-17T09:10:30.504Z,42.03
2023-01-17T09:13:01.193Z,42.25
2023-01-17T09:15:32.247Z,42.50
2023-01-17T09:18:03.034Z,42.31
2023-01-17T09:20:33.812Z,42.15
2023-01-17T09:23:05.836Z,41.67
2023-01-17T09:25:36.508Z,41.77
2023-01-17T09:28:07.093Z,42.60
2023-01-17T09:30:37.845Z,41.41
2023-01-17T09:33:08.567Z,41.65
2023-01-17T09:35:39.358Z,41.07
2023-01-17T09:38:10.293Z,41.22
2023-01-17T09:40:45.528Z,40.96
2023-01-17T09:43:54.282Z,40.87
2023-01-17T09:46:27.450Z,40.87
2023-01-17T09:49:04.717Z,40.05
2023-01-17T09:51:36.639Z,40.17
2023-01-17T09:54:07.526Z,39.76
2023-01-17T09:56:42.176Z,39.85
2023-01-17T09:59:45.388Z,41.04
2023-01-17T10:02:19.531Z,42.63
2023-01-17T10:04:59.491Z,45.98
2023-01-17T10:07:36.028Z,49.74
2023-01-17T10:10:12.357Z,52.63
2023-01-17T10:12:42.995Z,54.47
2023-01-17T10:15:16.585Z,57.46
2023-01-17T10:18:05.730Z,60.16
2023-01-17T10:20:45.579Z,59.74
2023-01-17T10:23:26.681Z,60.82
2023-01-17T10:26:00.108Z,60.36
2023-01-17T10:28:36.886Z,60.66
2023-01-17T10:31:12.369Z,61.36
2023-01-17T10:33:50.108Z,61.35
2023-01-17T10:36:23.436Z,60.78
2023-01-17T10:38:57.066Z,60.74
2023-01-17T10:41:37.128Z,60.80
2023-01-17T10:44:14.257Z,61.10
2023-01-17T10:46:49.807Z,60.94
2023-01-17T10:49:22.246Z,61.25
2023-01-17T10:52:09.794Z,61.12
2023-01-17T10:55:05.446Z,61.12
2023-01-17T10:57:45.767Z,61.21
2023-01-17T11:00:27.138Z,61.43
2023-01-17T11:02:58.315Z,61.24
2023-01-17T11:05:31.368Z,61.03
2023-01-17T11:08:06.892Z,61.05
2023-01-17T11:10:38.277Z,60.99
2023-01-17T11:13:21.329Z,60.98
2023-01-17T11:15:53.600Z,61.13
2023-01-17T11:18:25.387Z,61.36
2023-01-17T11:21:10.975Z,60.90
2023-01-17T11:23:43.731Z,61.13
2023-01-17T11:26:22.946Z,61.04
2023-01-17T11:28:54.553Z,61.38
2023-01-17T11:31:26.899Z,61.18
2023-01-17T11:34:16.450Z,61.36
2023-01-17T11:36:48.147Z,60.84
2023-01-17T11:39:22.568Z,60.88
2023-01-17T11:41:54.380Z,61.20
2023-01-17T11:44:30.231Z,61.29
2023-01-17T11:47:16.009Z,61.15
2023-01-17T11:49:48.588Z,61.23
2023-01-17T11:52:27.025Z,61.48
2023-01-17T11:54:57.909Z,61.31
2023-01-17T11:57:33.022Z,61.52
2023-01-17T12:00:42.923Z,60.87
2023-01-17T12:03:31.931Z,61.32
2023-01-17T12:06:19.409Z,61.77
2023-01-17T12:08:52.720Z,61.23
2023-01-17T12:11:34.209Z,61.22
2023-01-17T12:14:08.575Z,61.47
2023-01-17T12:16:45.222Z,61.66
2023-01-17T12:19:34.333Z,61.55
2023-01-17T12:22:18.028Z,61.91
2023-01-17T12:25:08.395Z,62.96
2023-01-17T12:27:54.758Z,62.20
2023-01-17T12:30:25.500Z,62.24
2023-01-17T12:33:14.625Z,62.40
2023-01-17T12:35:52.647Z,62.35
2023-01-17T12:38:38.124Z,62.54
2023-01-17T12:41:18.788Z,62.78
2023-01-17T12:43:49.505Z,62.42
2023-01-17T12:46:28.581Z,62.67
2023-01-17T12:49:13.885Z,62.77
2023-01-17T12:51:47.381Z,62.10
2023-01-17T12:54:18.276Z,62.07
2023-01-17T12:56:58.032Z,62.71
2023-01-17T12:59:35.199Z,62.31
2023-01-17T13:02:14.820Z,62.70
2023-01-17T13:05:05.474Z,62.22
2023-01-17T13:07:42.480Z,62.34
2023-01-17T13:10:39.065Z,62.58
2023-01-17T13:13:37.298Z,62.35
2023-01-17T13:16:18.219Z,63.26
2023-01-17T13:18:49.693Z,64.62
2023-01-17T13:21:29.336Z,65.22
2023-01-17T13:24:09.631Z,66.01
2023-01-17T13:26:45.973Z,66.25
2023-01-17T13:29:31.689Z,66.72
2023-01-17T13:32:08.449Z,66.67
2023-01-17T13:34:55.043Z,67.43
2023-01-17T13:37:35.963Z,67.16
2023-01-17T13:40:06.705Z,67.46
2023-01-17T13:42:40.028Z,67.31
2023-01-17T13:45:11.714Z,67.59
2023-01-17T13:47:42.830Z,67.67
2023-01-17T13:50:31.491Z,67.78
2023-01-17T13:53:02.188Z,68.43
2023-01-17T13:55:49.240Z,68.44
2023-01-17T13:58:52.003Z,69.05
2023-01-17T14:01:44.599Z,69.46
2023-01-17T14:04:15.825Z,69.40
2023-01-17T14:06:50.379Z,70.27
2023-01-17T14:09:40.907Z,69.72
2023-01-17T14:12:11.592Z,70.54
2023-01-17T14:14:42.395Z,67.83
2023-01-17T14:17:18.758Z,65.39
2023-01-17T14:19:50.948Z,61.79
2023-01-17T14:22:21.559Z,59.64
2023-01-17T14:25:13.865Z,57.53
2023-01-17T14:27:44.614Z,55.75
2023-01-17T14:30:21.354Z,54.13
2023-01-17T14:33:04.429Z,53.23
2023-01-17T14:35:53.012Z,51.76
2023-01-17T14:38:26.624Z,51.04
2023-01-17T14:40:59.716Z,50.00
2023-01-17T14:43:34.372Z,49.56
2023-01-17T14:46:08.142Z,48.76
2023-01-17T14:48:41.236Z,48.79
2023-01-17T14:51:16.546Z,48.94
2023-01-17T14:54:01.155Z,48.57
2023-01-17T14:56:32.768Z,48.33
2023-01-17T14:59:22.683Z,47.67
2023-01-17T15:02:06.814Z,47.30
2023-01-17T15:04:40.668Z,47.04
2023-01-17T15:07:16.725Z,47.12
2023-01-17T15:09:48.736Z,46.58
2023-01-17T15:12:20.989Z,46.34
2023-01-17T15:14:53.334Z,46.07
2023-01-17T15:17:28.318Z,46.17
2023-01-17T15:20:03.095Z,45.91
2023-01-17T15:22:33.915Z,45.93
2023-01-17T15:25:05.162Z,45.51
2023-01-17T15:27:35.810Z,45.64
2023-01-17T15:30:08.226Z,45.72
2023-01-17T15:32:40.237Z,45.39
2023-01-17T15:35:29.780Z,45.99
2023-01-17T15:38:02.692Z,46.13
2023-01-17T15:40:34.814Z,45.93
2023-01-17T15:43:07.962Z,46.10
2023-01-17T15:45:38.752Z,46.09
2023-01-17T15:48:27.791Z,46.01
2023-01-17T15:51:01.299Z,45.98
2023-01-17T15:53:36.672Z,46.23
2023-01-17T15:56:39.613Z,45.55
2023-01-17T15:59:44.774Z,46.70
2023-01-17T16:02:44.970Z,46.73
2023-01-17T16:05:24.575Z,46.69
2023-01-17T16:07:55.204Z,46.98
2023-01-17T16:10:30.336Z,46.68
2023-01-17T16:13:01.903Z,46.63
2023-01-17T16:15:32.717Z,46.78
2023-01-17T16:18:04.601Z,46.66
2023-01-17T16:20:37.917Z,46.76
2023-01-17T16:23:08.668Z,46.66
2023-01-17T16:25:39.934Z,46.57
2023-01-17T16:28:10.622Z,47.05
2023-01-17T16:30:41.339Z,48.78
2023-01-17T16:33:13.884Z,48.76
2023-01-17T16:35:44.591Z,48.74
2023-01-17T16:38:20.531Z,48.18
2023-01-17T16:40:51.120Z,47.84
2023-01-17T16:43:21.956Z,47.72
2023-01-17T16:45:54.557Z,47.34
2023-01-17T16:48:25.377Z,47.18
2023-01-17T16:51:00.769Z,47.06
2023-01-17T16:53:31.404Z,47.19
2023-01-17T16:56:08.166Z,46.78
2023-01-17T16:58:38.904Z,46.71
2023-01-17T17:01:14.009Z,46.60
2023-01-17T17:03:47.557Z,46.67
2023-01-17T17:06:18.102Z,46.30
2023-01-17T17:08:49.152Z,46.22
2023-01-17T17:11:21.226Z,46.39
2023-01-17T17:13:52.540Z,46.08
2023-01-17T17:16:25.519Z,46.24
2023-01-17T17:18:57.969Z,46.27
2023-01-17T17:21:29.250Z,45.84
2023-01-17T17:24:00.817Z,46.23
2023-01-17T17:26:38.109Z,47.15
2023-01-17T17:29:11.969Z,48.77
2023-01-17T17:31:43.091Z,50.91
2023-01-17T17:34:15.061Z,52.06
2023-01-17T17:36:45.738Z,52.98
2023-01-17T17:39:17.159Z,54.26
2023-01-17T17:41:47.797Z,55.55
2023-01-17T17:44:19.181Z,56.55
2023-01-17T17:46:52.948Z,55.31
2023-01-17T17:49:24.311Z,53.75
2023-01-17T17:51:55.636Z,53.14
2023-01-17T17:54:27.655Z,52.51
2023-01-17T17:56:58.592Z,51.59
2023-01-17T17:59:29.782Z,51.54
2023-01-17T18:02:01.140Z,50.71
2023-01-17T18:04:31.871Z,50.51
2023-01-17T18:07:02.434Z,50.25
2023-01-17T18:09:33.131Z,49.77
2023-01-17T18:12:04.847Z,50.16
2023-01-17T18:14:35.832Z,51.97
2023-01-17T18:17:06.605Z,53.57
2023-01-17T18:19:37.697Z,54.54
2023-01-17T18:22:08.252Z,55.43
2023-01-17T18:24:38.843Z,56.76
2023-01-17T18:27:11.782Z,57.98
2023-01-17T18:29:42.396Z,57.01
2023-01-17T18:32:14.573Z,55.18
2023-01-17T18:34:45.203Z,54.29
2023-01-17T18:37:15.804Z,53.62
2023-01-17T18:39:46.752Z,52.71
2023-01-17T18:42:17.278Z,52.41
2023-01-17T18:44:47.944Z,52.10
2023-01-17T18:47:18.553Z,51.20
2023-01-17T18:49:54.892Z,50.95
2023-01-17T18:52:25.460Z,51.78
2023-01-17T18:54:57.300Z,53.60
2023-01-17T18:57:28.431Z,54.66
2023-01-17T18:59:59.207Z,56.25
2023-01-17T19:02:29.710Z,57.06
2023-01-17T19:05:00.558Z,57.74
2023-01-17T19:07:33.838Z,59.34
2023-01-17T19:10:04.761Z,58.93
2023-01-17T19:12:35.238Z,57.32
2023-01-17T19:15:05.997Z,56.01
2023-01-17T19:17:36.529Z,55.15
2023-01-17T19:20:08.521Z,54.44
2023-01-17T19:22:39.004Z,53.35
2023-01-17T19:25:09.791Z,52.91
2023-01-17T19:27:40.380Z,53.86
2023-01-17T19:30:11.376Z,55.23
2023-01-17T19:32:42.529Z,56.33
2023-01-17T19:35:15.448Z,57.57
2023-01-17T19:37:47.121Z,58.06
2023-01-17T19:40:18.387Z,58.41
2023-01-17T19:42:49.396Z,58.31
2023-01-17T19:45:20.086Z,57.51
2023-01-17T19:47:50.810Z,59.32
2023-01-17T19:50:21.401Z,57.81
2023-01-17T19:52:53.162Z,56.35
2023-01-17T19:55:27.142Z,55.58
2023-01-17T19:57:58.098Z,54.27
2023-01-17T20:00:30.379Z,53.55
2023-01-17T20:03:01.584Z,53.71
2023-01-17T20:05:33.838Z,54.85
2023-01-17T20:08:04.549Z,55.91
2023-01-17T20:10:35.195Z,57.08
2023-01-17T20:13:06.304Z,57.62
2023-01-17T20:15:36.835Z,58.01
2023-01-17T20:18:07.525Z,57.74
2023-01-17T20:20:55.809Z,57.70
2023-01-17T20:23:27.084Z,59.50
2023-01-17T20:26:00.579Z,57.79
2023-01-17T20:28:32.115Z,56.52
2023-01-17T20:31:10.442Z,55.77
2023-01-17T20:33:45.786Z,54.62
2023-01-17T20:36:18.062Z,54.47
2023-01-17T20:38:50.121Z,55.54
2023-01-17T20:41:24.840Z,56.27
2023-01-17T20:43:56.857Z,57.44
2023-01-17T20:46:28.564Z,57.92
2023-01-17T20:48:59.831Z,58.17
2023-01-17T20:51:31.761Z,57.86
2023-01-17T20:54:06.329Z,57.85
2023-01-17T20:56:38.583Z,59.86
2023-01-17T20:59:11.095Z,58.19
2023-01-17T21:01:41.836Z,56.94
2023-01-17T21:04:12.818Z,55.78
2023-01-17T21:06:43.998Z,54.81
2023-01-17T21:09:15.818Z,54.82
2023-01-17T21:11:46.894Z,56.08
2023-01-17T21:14:17.565Z,56.96
2023-01-17T21:16:49.273Z,57.35
2023-01-17T21:19:20.005Z,57.53
2023-01-17T21:21:51.588Z,58.32
2023-01-17T21:24:22.173Z,57.82
2023-01-17T21:26:53.883Z,57.77
2023-01-17T21:29:30.129Z,57.78
2023-01-17T21:32:00.921Z,58.88
2023-01-17T21:34:34.102Z,59.68
2023-01-17T21:37:04.845Z,58.28
2023-01-17T21:39:35.395Z,56.90
2023-01-17T21:42:06.056Z,55.87
2023-01-17T21:44:39.434Z,55.36
2023-01-17T21:47:10.064Z,56.73
2023-01-17T21:49:40.679Z,57.31
2023-01-17T21:52:13.294Z,57.78
2023-01-17T21:55:01.913Z,57.59
2023-01-17T21:57:50.765Z,57.81
2023-01-17T22:00:21.349Z,58.40
2023-01-17T22:02:52.314Z,58.95
2023-01-17T22:05:23.519Z,59.10
2023-01-17T22:08:23.141Z,60.38
2023-01-17T22:10:53.926Z,58.88
2023-01-17T22:13:24.431Z,57.81
2023-01-17T22:16:02.245Z,56.66
2023-01-17T22:18:33.046Z,55.79
2023-01-17T22:21:08.216Z,56.50
2023-01-17T22:23:38.944Z,57.38
2023-01-17T22:26:14.160Z,57.82
2023-01-17T22:28:44.745Z,57.75
2023-01-17T22:31:16.860Z,58.38
2023-01-17T22:33:48.646Z,58.41
2023-01-17T22:36:19.890Z,59.16
2023-01-17T22:38:50.481Z,60.09
2023-01-17T22:41:25.305Z,60.37
2023-01-17T22:43:58.469Z,59.95
2023-01-17T22:46:31.113Z,58.63
2023-01-17T22:49:01.972Z,57.51
2023-01-17T22:51:32.673Z,56.78
2023-01-17T22:54:03.689Z,57.58
2023-01-17T22:56:35.215Z,58.38
2023-01-17T22:59:09.417Z,58.85
2023-01-17T23:01:44.034Z,61.77
2023-01-17T23:04:15.623Z,62.04
2023-01-17T23:06:46.693Z,61.96
2023-01-17T23:09:18.786Z,62.05
2023-01-17T23:11:53.478Z,62.02
2023-01-17T23:14:25.366Z,62.07
2023-01-17T23:17:16.012Z,62.17
2023-01-17T23:19:54.056Z,61.95
2023-01-17T23:22:24.642Z,61.83
2023-01-17T23:24:56.424Z,61.45
2023-01-17T23:27:51.294Z,61.83
2023-01-17T23:30:26.916Z,61.63
2023-01-17T23:32:59.090Z,61.24
2023-01-17T23:35:31.515Z,61.43
2023-01-17T23:38:20.649Z,61.64
2023-01-17T23:41:09.396Z,61.62
2023-01-17T23:43:40.631Z,61.74
2023-01-17T23:46:13.111Z,61.83
2023-01-17T23:48:43.811Z,61.94
2023-01-17T23:51:14.397Z,61.96
2023-01-17T23:53:45.024Z,61.80
2023-01-17T23:56:20.234Z,62.01
2023-01-17T23:58:50.977Z,62.24
